KSYN

Stanton Airfield Airport

Stanton, Minnesota, USA
METAR KSYN 190715Z AUTO 16003KT 10SM CLR 03/00 A2973 RMK AO2 T00260002
Observed Flight Rules
Dec-19 @ 07:15 UTC (16 minutes ago) Visual Flight Rules
Wind Visibility Clouds
160° at 3 knots 10 miles
  • Clear skies
Temperatures Readings
Current 3°C / 37°F
Dewpoint 0°C / 32°F
Humidity 81%
Altimeter 29.73" Hg
Pressure 1007 hPa
Elevation 280
METAR KSYN 190715Z AUTO 16003KT 10SM CLR 03/00 A2973 RMK AO2 T00260002
Observed Flight Rules
Dec-19 @ 07:15 UTC
(16 minutes ago)
VFR
Wind Visibility
160° at 3 knots 10 miles
Clouds
  • Clear skies
Temperature Dewpoint
3°C / 37°F 0°C / 32°F
Humidity Altimeter Pressure
81% 29.73" Hg 1007 hPa